Time;durP1;ratioP1;P1;durP2;ratioP2;P2;SDS_P1;SDS_P2;PMS_P1;PMS_P2;Temp;Humidity;BMP_temperature;BMP_pressure;BME280_temperature;BME280_humidity;BME280_pressure;Samples;Min_cycle;Max_cycle;Signal;HPM_P1;HPM_P2
2021/09/01 00:00:09;;;;;;;12.52;5.78;;;15.40;99.90;;;17.00;98.36;101621.84;6155650;23;20009;-91
2021/09/01 00:02:35;;;;;;;16.38;5.70;;;15.30;99.90;;;17.02;98.53;101627.91;6155641;23;20015;-90
2021/09/01 00:05:01;;;;;;;14.20;6.00;;;15.30;99.90;;;16.99;98.31;101628.66;6155686;23;20073;-89
2021/09/01 00:07:27;;;;;;;17.50;5.78;;;15.30;99.90;;;16.96;98.22;101626.59;6155691;23;20014;-90
2021/09/01 00:09:53;;;;;;;15.10;6.18;;;15.30;99.90;;;16.96;98.02;101632.25;6156242;23;20470;-92
2021/09/01 00:12:19;;;;;;;17.75;7.38;;;15.20;99.90;;;16.94;97.74;101629.00;6155818;23;20005;-92
2021/09/01 00:14:45;;;;;;;16.50;6.18;;;15.20;99.90;;;16.88;97.70;101624.03;6155374;23;20010;-91
2021/09/01 00:17:11;;;;;;;17.38;6.25;;;15.20;99.90;;;16.84;98.18;101627.63;6157164;23;20014;-92
2021/09/01 00:19:37;;;;;;;15.27;5.82;;;15.10;99.90;;;16.80;98.09;101634.38;6155230;23;20336;-91
2021/09/01 00:22:03;;;;;;;11.55;5.68;;;15.20;99.90;;;16.77;98.10;101638.78;6155790;23;20013;-91
2021/09/01 00:24:29;;;;;;;15.20;5.97;;;15.10;99.90;;;16.74;98.04;101636.72;6155352;23;20112;-91
2021/09/01 00:26:55;;;;;;;15.65;5.43;;;15.00;99.90;;;16.75;98.37;101646.00;6155348;23;20045;-92
2021/09/01 00:29:21;;;;;;;14.07;5.57;;;15.10;99.90;;;16.71;98.56;101640.28;6155721;23;20009;-89
2021/09/01 00:31:47;;;;;;;18.52;6.47;;;15.10;99.90;;;16.70;98.23;101646.28;6156195;23;20005;-91
2021/09/01 00:34:13;;;;;;;12.68;5.90;;;15.10;99.90;;;16.71;98.06;101642.28;6130764;23;20016;-89
2021/09/01 00:36:38;;;;;;;14.60;5.78;;;15.00;99.90;;;16.69;97.74;101639.03;6157696;23;20339;-90
2021/09/01 00:39:04;;;;;;;13.48;6.03;;;15.00;99.90;;;16.66;97.69;101629.31;6157513;23;20018;-90
2021/09/01 00:41:30;;;;;;;14.90;6.10;;;15.00;99.90;;;16.66;97.93;101631.34;6157808;23;20014;-90
2021/09/01 00:44:25;;;;;;;14.35;5.88;;;15.00;99.90;;;16.65;97.71;101638.97;6157616;23;20013;-91
2021/09/01 00:46:56;;;;;;;18.33;6.80;;;15.00;99.90;;;16.69;97.62;101639.03;6157337;23;20005;-89
2021/09/01 00:49:25;;;;;;;12.27;5.85;;;14.90;99.90;;;16.69;97.29;101636.22;6157607;23;20013;-89
2021/09/01 00:51:51;;;;;;;12.75;5.72;;;14.90;99.90;;;16.66;97.24;101634.16;6132728;23;20071;-90
2021/09/01 00:54:25;;;;;;;16.13;6.30;;;14.90;99.90;;;16.66;97.12;101631.34;6156877;23;20056;-91
2021/09/01 00:56:58;;;;;;;12.02;6.03;;;15.00;99.90;;;16.67;97.12;101625.31;6161289;23;20094;-90
2021/09/01 00:59:28;;;;;;;12.85;5.90;;;15.00;99.90;;;16.66;96.91;101636.97;6141849;23;20005;-89
2021/09/01 01:01:57;;;;;;;12.18;5.70;;;14.90;99.90;;;16.67;97.02;101630.13;6162076;23;20486;-92
2021/09/01 01:04:35;;;;;;;13.82;5.72;;;15.00;99.90;;;16.66;96.94;101629.31;6157377;23;20018;-91
2021/09/01 01:07:12;;;;;;;13.85;6.05;;;15.00;99.90;;;16.65;96.75;101629.69;6157710;23;20001;-93
2021/09/01 01:09:41;;;;;;;13.93;6.05;;;15.00;99.90;;;16.65;96.58;101635.34;6158048;23;20016;-89
2021/09/01 01:12:20;;;;;;;13.15;5.90;;;14.90;99.90;;;16.66;96.62;101642.63;6158276;23;20017;-90
2021/09/01 01:14:52;;;;;;;21.38;6.93;;;14.90;99.90;;;16.66;96.40;101642.63;6134790;23;20016;-90
2021/09/01 01:17:22;;;;;;;14.40;5.65;;;14.90;99.90;;;16.62;96.23;101630.44;6159022;23;20001;-90
2021/09/01 01:19:53;;;;;;;9.60;5.28;;;14.90;99.90;;;16.61;96.41;101632.44;6133564;23;20006;-90
2021/09/01 01:22:24;;;;;;;10.95;4.82;;;14.90;99.90;;;16.59;96.27;101623.56;6157341;23;20005;-89
2021/09/01 01:25:00;;;;;;;13.23;5.45;;;14.90;99.90;;;16.59;96.16;101629.19;6157336;23;20028;-91
2021/09/01 01:27:43;;;;;;;8.82;4.97;;;14.90;99.90;;;16.62;96.22;101636.91;6158156;23;20020;-91
2021/09/01 01:30:21;;;;;;;9.75;5.18;;;14.90;99.90;;;16.62;96.24;101638.91;6133712;23;20009;-91
2021/09/01 01:32:52;;;;;;;8.25;5.40;;;14.90;99.90;;;16.63;96.23;101634.91;6157871;23;20002;-90
2021/09/01 01:35:35;;;;;;;13.05;6.32;;;14.90;99.90;;;16.64;96.20;101642.16;6132827;23;20005;-90
2021/09/01 01:38:09;;;;;;;10.90;5.65;;;14.90;99.90;;;16.63;95.93;101635.69;6158418;23;20453;-90
2021/09/01 01:40:37;;;;;;;12.00;5.43;;;14.90;99.90;;;16.61;95.77;101632.44;6133902;23;20012;-91
2021/09/01 01:43:04;;;;;;;14.25;5.93;;;15.00;99.90;;;16.62;95.50;101631.28;6157656;23;20052;-89
2021/09/01 01:45:45;;;;;;;14.20;6.13;;;14.90;99.90;;;16.68;95.39;101637.41;6157605;23;20373;-91
2021/09/01 01:48:16;;;;;;;18.40;6.40;;;14.90;99.90;;;16.62;95.11;101631.28;6132885;23;20072;-91
2021/09/01 01:50:44;;;;;;;12.13;6.18;;;14.90;99.90;;;16.66;95.52;101640.59;6157676;23;20005;-90
2021/09/01 01:53:10;;;;;;;11.60;5.20;;;14.90;99.90;;;16.66;95.51;101642.63;6133118;23;20074;-90
2021/09/01 01:55:36;;;;;;;11.75;5.93;;;14.90;99.90;;;16.65;95.34;101646.63;6158547;23;20006;-92
2021/09/01 01:58:03;;;;;;;11.65;5.78;;;14.90;99.90;;;16.61;95.42;101638.09;6160196;23;20103;-91
2021/09/01 02:00:29;;;;;;;9.90;5.30;;;14.90;99.90;;;16.63;95.11;101649.00;6157466;23;20009;-90
2021/09/01 02:02:55;;;;;;;10.82;5.60;;;14.90;99.90;;;16.62;94.92;101639.72;6132709;23;20013;-89
2021/09/01 02:05:21;;;;;;;12.77;5.15;;;15.00;99.90;;;16.65;94.91;101638.97;6157105;23;20005;-90
2021/09/01 02:07:47;;;;;;;17.15;6.38;;;15.00;99.90;;;16.63;94.81;101640.53;6132207;23;20522;-90
2021/09/01 02:10:13;;;;;;;11.80;5.78;;;14.90;99.90;;;16.63;94.76;101634.91;6157435;23;20048;-90
2021/09/01 02:12:41;;;;;;;14.82;5.40;;;14.90;99.90;;;16.59;94.96;101634.84;6132880;23;20085;-90
2021/09/01 02:15:11;;;;;;;10.98;5.22;;;14.90;99.90;;;16.62;95.18;101636.09;6157537;23;20005;-90
2021/09/01 02:17:39;;;;;;;13.40;5.43;;;14.90;99.90;;;16.62;94.94;101628.44;6133066;23;20010;-89
2021/09/01 02:20:09;;;;;;;14.07;6.10;;;14.90;99.90;;;16.59;94.77;101628.38;6157849;23;20100;-89
2021/09/01 02:22:36;;;;;;;12.35;5.65;;;14.90;99.90;;;16.60;94.77;101630.03;6174550;23;20013;-88
2021/09/01 02:25:04;;;;;;;12.32;6.15;;;14.90;99.90;;;16.59;94.37;101629.19;6155799;23;20028;-88
2021/09/01 02:27:30;;;;;;;12.20;6.20;;;14.90;99.90;;;16.60;93.93;101630.81;6156332;23;20005;-89
2021/09/01 02:29:57;;;;;;;16.00;6.28;;;14.90;99.90;;;16.60;94.23;101627.19;6167848;23;20009;-92
2021/09/01 02:32:23;;;;;;;10.57;5.88;;;14.80;99.90;;;16.56;94.15;101620.66;6157644;23;20021;-90
2021/09/01 02:34:49;;;;;;;9.10;5.22;;;14.90;99.90;;;16.57;94.33;101625.91;6156707;23;20093;-90
2021/09/01 02:37:18;;;;;;;13.55;5.63;;;14.80;99.90;;;16.55;94.61;101619.03;6132152;23;20033;-90
2021/09/01 02:39:43;;;;;;;12.38;5.05;;;14.80;99.90;;;16.53;94.88;101629.84;6157430;23;20037;-91
2021/09/01 02:42:09;;;;;;;12.13;4.65;;;14.80;99.90;;;16.56;95.41;101631.94;6157392;23;20017;-90
2021/09/01 02:44:37;;;;;;;11.25;4.82;;;14.90;99.90;;;16.54;95.56;101637.09;6156937;23;20005;-89
2021/09/01 02:47:04;;;;;;;12.10;5.40;;;14.80;99.90;;;16.52;95.86;101640.31;6156402;23;20096;-90
2021/09/01 02:49:30;;;;;;;16.17;5.43;;;14.80;99.90;;;16.54;96.29;101648.38;6156672;23;20005;-92
2021/09/01 02:51:56;;;;;;;12.63;5.10;;;14.80;99.90;;;16.50;95.26;101642.72;6158719;23;20001;-90
2021/09/01 02:54:22;;;;;;;9.52;4.88;;;14.80;99.90;;;16.50;95.11;101648.34;6156917;23;20006;-90
2021/09/01 02:56:48;;;;;;;9.48;4.95;;;14.80;99.90;;;16.50;95.36;101655.97;6157872;23;20028;-91
2021/09/01 02:59:15;;;;;;;15.20;5.25;;;14.80;99.90;;;16.49;95.18;101645.88;6157969;23;20019;-90
2021/09/01 03:01:41;;;;;;;11.70;5.47;;;14.80;99.90;;;16.52;94.81;101645.13;6156864;23;20056;-89
2021/09/01 03:04:07;;;;;;;18.27;5.18;;;14.80;99.90;;;16.51;94.47;101641.50;6132337;23;20060;-91
2021/09/01 03:06:33;;;;;;;11.05;4.70;;;14.70;99.90;;;16.50;94.69;101639.88;6156843;23;20009;-92
2021/09/01 03:09:00;;;;;;;9.57;4.53;;;14.80;99.90;;;16.52;94.61;101648.78;6157253;23;20009;-90
2021/09/01 03:11:27;;;;;;;12.25;4.57;;;14.80;99.90;;;16.51;94.42;101641.50;6132165;23;20005;-90
2021/09/01 03:13:53;;;;;;;11.07;5.63;;;14.80;99.90;;;16.54;94.10;101639.91;6156458;23;20009;-90
2021/09/01 03:16:19;;;;;;;10.93;4.82;;;14.90;99.90;;;16.52;94.34;101643.13;6132312;23;20116;-89
2021/09/01 03:18:45;;;;;;;12.43;5.45;;;14.80;99.90;;;16.51;94.33;101647.13;6157218;23;20016;-91
2021/09/01 03:21:11;;;;;;;12.13;4.43;;;14.80;99.90;;;16.50;94.14;101645.53;6156335;23;20056;-91
2021/09/01 03:23:37;;;;;;;12.63;5.80;;;14.80;99.90;;;16.52;94.41;101647.94;6172272;23;19997;-90
2021/09/01 03:26:04;;;;;;;12.18;5.93;;;14.80;99.90;;;16.49;94.62;101641.06;6148980;23;20120;-92
2021/09/01 03:28:30;;;;;;;16.50;6.40;;;14.80;99.90;;;16.46;95.14;101639.00;6133443;23;20071;-90
2021/09/01 03:30:56;;;;;;;14.25;5.75;;;14.80;99.90;;;16.48;94.41;101639.41;6157468;23;20428;-92
2021/09/01 03:33:22;;;;;;;12.25;5.40;;;14.80;99.90;;;16.45;95.05;101639.34;6131609;23;20016;-88
2021/09/01 03:35:48;;;;;;;12.18;5.15;;;14.80;99.90;;;16.46;95.07;101647.44;6158818;23;20017;-89
2021/09/01 03:38:15;;;;;;;18.30;6.45;;;14.80;99.90;;;16.44;95.13;101649.81;6155475;23;20056;-89
2021/09/01 03:40:42;;;;;;;15.85;6.25;;;14.80;99.90;;;16.41;95.75;101646.94;6180082;23;20060;-90
2021/09/01 03:43:09;;;;;;;12.13;5.53;;;14.70;99.90;;;16.43;95.65;101651.03;6154860;23;20006;-91
2021/09/01 03:45:36;;;;;;;12.43;5.68;;;14.70;99.90;;;16.40;95.78;101648.13;6180157;23;20036;-90
2021/09/01 03:48:03;;;;;;;12.07;6.13;;;14.70;99.90;;;16.41;96.08;101641.31;6156020;23;20021;-90
2021/09/01 03:50:29;;;;;;;15.05;6.65;;;14.70;99.90;;;16.41;95.90;101656.19;6179650;23;20073;-93
2021/09/01 03:52:55;;;;;;;10.93;5.47;;;14.70;99.90;;;16.40;95.45;101645.31;6159494;23;20005;-91
2021/09/01 03:55:21;;;;;;;15.20;6.35;;;14.70;99.90;;;16.35;96.10;101652.88;6158965;23;20018;-91
2021/09/01 03:57:48;;;;;;;14.05;5.95;;;14.60;99.90;;;16.30;96.56;101658.84;6159995;23;20006;-93
2021/09/01 04:00:14;;;;;;;13.98;6.13;;;14.70;99.90;;;16.29;96.59;101643.09;6160715;23;20005;-92
2021/09/01 04:02:40;;;;;;;11.27;5.30;;;14.60;99.90;;;16.32;96.50;101664.09;6158225;23;20006;-90
2021/09/01 04:05:07;;;;;;;16.85;6.50;;;14.60;99.90;;;16.31;96.71;101657.63;6158636;23;20186;-93
2021/09/01 04:07:33;;;;;;;14.32;6.18;;;14.60;99.90;;;16.32;96.96;101652.81;6160626;23;20434;-92
2021/09/01 04:09:59;;;;;;;14.88;6.07;;;14.70;99.90;;;16.32;96.96;101658.44;6161124;23;20006;-91
2021/09/01 04:12:25;;;;;;;12.48;6.07;;;14.60;99.90;;;16.29;96.92;101674.09;6163113;23;20416;-92
2021/09/01 04:14:51;;;;;;;11.93;5.70;;;14.60;99.90;;;16.27;96.74;101667.22;6161973;23;20432;-92
2021/09/01 04:17:17;;;;;;;14.63;5.82;;;14.60;99.90;;;16.24;96.77;101671.59;6160753;23;20005;-90
2021/09/01 04:19:43;;;;;;;10.35;5.30;;;14.60;99.90;;;16.22;96.54;101671.16;6137050;23;20002;-91
2021/09/01 04:22:10;;;;;;;9.27;5.50;;;14.60;99.90;;;16.21;96.69;101668.72;6160459;23;20379;-89
2021/09/01 04:24:36;;;;;;;11.10;6.18;;;14.50;99.90;;;16.18;97.06;101667.44;6135889;23;20010;-92
2021/09/01 04:27:02;;;;;;;8.98;5.00;;;14.60;99.90;;;16.17;96.94;101665.81;6135512;23;20037;-90
2021/09/01 04:29:28;;;;;;;11.77;5.72;;;14.50;99.90;;;16.17;97.14;101674.28;6161285;23;20093;-91
2021/09/01 04:31:54;;;;;;;15.13;5.82;;;14.50;99.90;;;16.13;97.14;101676.19;6159785;23;20060;-91
2021/09/01 04:34:19;;;;;;;12.15;5.18;;;14.50;99.90;;;16.08;97.02;101673.69;6159086;23;20023;-91
2021/09/01 04:36:45;;;;;;;9.27;5.30;;;14.50;99.90;;;16.11;97.26;101672.94;6135092;23;20013;-91
2021/09/01 04:39:11;;;;;;;12.85;4.90;;;14.50;99.90;;;16.13;97.25;101666.91;6135492;23;20009;-93
2021/09/01 04:41:37;;;;;;;8.95;4.82;;;14.50;99.90;;;16.13;97.36;101673.38;6158892;23;20021;-91
2021/09/01 04:44:03;;;;;;;12.80;5.78;;;14.50;99.90;;;16.15;97.19;101670.19;6134483;23;20504;-92
2021/09/01 04:46:29;;;;;;;11.88;5.60;;;14.40;99.90;;;16.12;97.01;101662.47;6160128;23;20352;-91
2021/09/01 04:48:55;;;;;;;17.02;6.03;;;14.40;99.90;;;16.14;97.12;101677.00;6159220;23;20005;-91
2021/09/01 04:51:22;;;;;;;11.75;5.00;;;14.50;99.90;;;16.13;97.23;101672.56;6162634;23;20088;-91
2021/09/01 04:53:47;;;;;;;9.85;5.50;;;14.40;99.90;;;16.08;96.87;101679.31;6135325;23;20016;-89
2021/09/01 04:56:13;;;;;;;7.05;4.53;;;14.50;99.90;;;16.07;96.88;101672.03;6158366;23;20335;-91
2021/09/01 04:58:40;;;;;;;9.38;4.68;;;14.40;99.90;;;16.10;97.04;101673.31;6136028;23;20020;-91
2021/09/01 05:01:07;;;;;;;11.60;4.90;;;14.40;99.90;;;16.11;97.04;101674.94;6161010;23;20067;-92
2021/09/01 05:03:34;;;;;;;11.05;5.35;;;14.40;99.90;;;16.11;97.14;101680.59;6134556;23;20009;-91
2021/09/01 05:06:00;;;;;;;9.32;5.22;;;14.50;99.90;;;16.11;97.09;101675.75;6133886;23;20013;-90
2021/09/01 05:08:26;;;;;;;10.30;5.20;;;14.50;99.90;;;16.12;96.89;101680.19;6132885;23;20335;-90
2021/09/01 05:10:52;;;;;;;12.52;5.15;;;14.40;99.90;;;16.14;97.11;101674.19;6158097;23;20002;-90
2021/09/01 05:13:17;;;;;;;7.93;4.55;;;14.50;99.90;;;16.15;96.59;101678.66;6157032;23;20428;-91
2021/09/01 05:15:43;;;;;;;10.80;4.90;;;14.40;99.90;;;16.14;96.60;101680.66;6132709;23;20399;-89
2021/09/01 05:18:09;;;;;;;6.80;4.70;;;14.50;99.90;;;16.16;96.55;101677.44;6158360;23;20016;-91
2021/09/01 05:20:38;;;;;;;9.23;4.15;;;14.50;99.90;;;16.17;96.55;101674.28;6132791;23;20056;-91
2021/09/01 05:23:08;;;;;;;8.35;4.63;;;14.50;99.90;;;16.21;96.50;101686.41;6157419;23;20017;-90
2021/09/01 05:25:57;;;;;;;8.73;5.13;;;14.50;99.90;;;16.24;96.43;101682.88;6132416;23;20014;-89
2021/09/01 05:28:35;;;;;;;12.20;5.15;;;14.50;99.90;;;16.27;96.35;101679.31;6132961;23;20024;-90
2021/09/01 05:31:06;;;;;;;7.32;5.18;;;14.60;99.90;;;16.29;96.19;101682.56;6160142;23;20001;-90
2021/09/01 05:33:40;;;;;;;9.23;5.47;;;14.60;99.90;;;16.33;96.22;101688.28;6135767;23;20017;-90
2021/09/01 05:36:07;;;;;;;8.57;4.85;;;14.60;99.90;;;16.32;95.93;101684.63;6132885;23;20431;-92
2021/09/01 05:38:34;;;;;;;8.38;4.80;;;14.60;99.90;;;16.38;95.92;101692.78;6133291;23;20124;-91
2021/09/01 05:41:03;;;;;;;9.00;5.15;;;14.60;99.90;;;16.42;96.11;101688.03;6133466;23;20297;-91
2021/09/01 05:43:29;;;;;;;11.90;5.95;;;14.60;99.90;;;16.44;95.75;101689.28;6157558;23;20014;-89
2021/09/01 05:45:55;;;;;;;9.27;5.50;;;14.70;99.90;;;16.46;95.55;101695.41;6133082;23;20010;-88
2021/09/01 05:48:23;;;;;;;10.52;5.18;;;14.70;99.90;;;16.49;95.04;101691.00;6137438;23;20010;-90
2021/09/01 05:50:56;;;;;;;11.85;5.80;;;14.70;99.90;;;16.54;95.29;101702.78;6163430;23;20028;-90
2021/09/01 05:53:23;;;;;;;10.90;5.35;;;14.80;99.90;;;16.57;95.20;101696.44;6131513;23;20443;-89
2021/09/01 05:55:53;;;;;;;10.70;5.82;;;14.80;99.90;;;16.61;95.00;101702.16;6155694;23;20420;-89
2021/09/01 05:58:21;;;;;;;10.48;5.20;;;14.90;99.90;;;16.60;95.17;101698.50;6156057;23;20016;-89
2021/09/01 06:00:58;;;;;;;14.07;5.93;;;14.90;99.90;;;16.64;94.51;101704.22;6155547;23;20060;-90
2021/09/01 06:03:43;;;;;;;14.25;5.95;;;14.90;99.90;;;16.63;93.32;101697.75;6130418;23;20035;-89
2021/09/01 06:06:21;;;;;;;12.95;5.25;;;14.90;99.90;;;16.63;93.32;101702.59;6154978;23;20020;-90
2021/09/01 06:08:48;;;;;;;13.05;5.90;;;14.90;99.90;;;16.68;92.87;101699.47;6156731;23;20044;-89
2021/09/01 06:11:23;;;;;;;11.55;5.65;;;14.90;99.90;;;16.68;92.47;101707.94;6155659;23;20010;-89
2021/09/01 06:13:49;;;;;;;11.18;6.18;;;14.90;99.90;;;16.71;92.59;101707.19;6155528;23;20317;-89
2021/09/01 06:16:15;;;;;;;9.43;5.68;;;14.90;99.90;;;16.72;92.58;101700.34;6156130;23;20045;-90
2021/09/01 06:18:41;;;;;;;13.43;5.60;;;15.00;99.90;;;16.73;92.25;101705.59;6131648;23;20010;-88
2021/09/01 06:21:09;;;;;;;8.95;5.40;;;15.00;99.90;;;16.77;92.44;101703.66;6156229;23;20320;-89
2021/09/01 06:23:39;;;;;;;18.00;6.80;;;15.00;99.90;;;16.80;92.63;101702.09;6130337;23;20013;-89
2021/09/01 06:26:04;;;;;;;11.38;5.75;;;15.00;99.90;;;16.80;92.00;101697.28;6156967;23;20024;-90
2021/09/01 06:28:30;;;;;;;10.38;6.13;;;15.10;99.90;;;16.82;92.01;101697.72;6158837;23;20010;-92
2021/09/01 06:30:56;;;;;;;8.98;5.53;;;15.00;99.90;;;16.80;91.93;101700.09;6157664;23;20336;-92
2021/09/01 06:33:22;;;;;;;12.63;5.40;;;15.00;99.90;;;16.84;91.80;101705.81;6133060;23;20384;-93
2021/09/01 06:35:49;;;;;;;15.77;5.72;;;15.10;99.90;;;16.88;92.00;101706.69;6134247;23;20064;-91
2021/09/01 06:38:15;;;;;;;9.80;5.70;;;15.10;99.90;;;16.86;91.46;101706.25;6160546;23;20009;-92
2021/09/01 06:40:41;;;;;;;11.35;6.20;;;15.10;99.90;;;16.85;91.60;101708.28;6158764;23;20150;-89
2021/09/01 06:43:08;;;;;;;14.15;5.30;;;15.10;99.90;;;16.95;91.20;101706.84;6158225;23;20029;-91
2021/09/01 06:45:34;;;;;;;9.23;5.30;;;15.20;99.90;;;16.98;91.42;101703.25;6159966;23;20013;-90
2021/09/01 06:48:00;;;;;;;13.57;5.50;;;15.20;99.90;;;17.02;91.77;101700.47;6135464;23;20411;-91
2021/09/01 06:50:27;;;;;;;13.20;5.47;;;15.30;99.90;;;17.06;91.61;101710.63;6160460;23;20006;-90
2021/09/01 06:52:55;;;;;;;12.43;4.93;;;15.30;99.90;;;17.13;91.60;101710.78;6162381;23;20005;-90
2021/09/01 06:55:23;;;;;;;13.73;4.85;;;15.30;99.90;;;17.16;91.41;101710.00;6162742;23;20009;-93
2021/09/01 06:57:49;;;;;;;13.63;5.40;;;15.30;99.90;;;17.18;90.89;101716.09;6160187;23;20005;-90
2021/09/01 07:00:19;;;;;;;11.70;5.30;;;15.30;99.90;;;17.14;89.96;101705.94;6158627;23;20009;-91
2021/09/01 07:02:46;;;;;;;10.25;5.13;;;15.40;99.90;;;17.17;89.83;101725.78;6136279;23;20009;-90
2021/09/01 07:05:14;;;;;;;14.10;5.35;;;15.40;99.90;;;17.22;89.08;101722.63;6158966;23;20005;-91
2021/09/01 07:07:43;;;;;;;13.07;5.30;;;15.50;99.90;;;17.26;89.41;101722.69;6134505;23;20002;-90
2021/09/01 07:10:12;;;;;;;7.32;4.25;;;15.50;99.90;;;17.33;89.63;101723.63;6134915;23;20001;-90
2021/09/01 07:12:39;;;;;;;11.25;4.78;;;15.50;99.90;;;17.35;89.28;101721.22;6159885;23;20005;-91
2021/09/01 07:15:08;;;;;;;9.82;4.50;;;15.60;99.90;;;17.34;89.13;101722.41;6160285;23;20128;-90
2021/09/01 07:17:38;;;;;;;12.00;5.10;;;15.50;99.90;;;17.39;89.56;101726.94;6135313;23;20002;-91
2021/09/01 07:20:07;;;;;;;14.00;5.22;;;15.50;99.90;;;17.44;88.72;101748.38;6160779;23;20012;-89
2021/09/01 07:22:36;;;;;;;9.07;4.43;;;15.60;99.90;;;17.44;88.61;101740.72;6158609;23;20009;-91
2021/09/01 07:25:05;;;;;;;10.38;4.70;;;15.60;99.90;;;17.49;88.57;101748.88;6158946;23;20009;-91
2021/09/01 07:27:32;;;;;;;12.60;5.25;;;15.60;99.90;;;17.51;88.44;101754.16;6133515;23;20006;-90
2021/09/01 07:29:58;;;;;;;11.65;5.53;;;15.70;99.90;;;17.49;87.89;101742.41;6159795;23;20048;-89
2021/09/01 07:32:23;;;;;;;10.85;5.22;;;15.70;99.90;;;17.46;87.67;101754.47;6158261;23;20394;-89
2021/09/01 07:34:49;;;;;;;10.23;5.45;;;15.60;99.90;;;17.51;87.76;101748.50;6157116;23;20009;-89
2021/09/01 07:37:15;;;;;;;10.38;4.75;;;15.70;99.90;;;17.58;87.73;101757.94;6158506;23;20100;-90
2021/09/01 07:39:41;;;;;;;10.75;5.10;;;15.80;99.90;;;17.65;87.91;101746.75;6160535;23;20451;-89
2021/09/01 07:42:07;;;;;;;15.50;5.93;;;15.80;99.90;;;17.70;87.60;101766.19;6175335;23;20013;-89
2021/09/01 07:44:34;;;;;;;10.88;5.05;;;15.80;99.90;;;17.72;87.44;101757.38;6180303;23;20122;-89
2021/09/01 07:47:00;;;;;;;12.40;4.78;;;15.90;99.90;;;17.71;86.87;101769.84;6151312;23;20002;-89
2021/09/01 07:49:25;;;;;;;8.95;4.97;;;15.90;99.90;;;17.66;86.38;101764.53;6144272;23;20052;-92
2021/09/01 07:51:52;;;;;;;17.65;5.28;;;15.90;99.90;;;17.61;86.09;101762.00;6135120;23;20010;-91
2021/09/01 07:54:20;;;;;;;12.18;5.15;;;15.90;99.90;;;17.67;86.01;101769.78;6158046;23;20013;-89
2021/09/01 07:56:46;;;;;;;9.57;4.75;;;15.90;99.90;;;17.73;85.59;101779.56;6158505;23;20033;-90
2021/09/01 07:59:12;;;;;;;12.40;5.05;;;15.90;99.90;;;17.72;84.86;101774.31;6135012;23;20440;-88
2021/09/01 08:01:38;;;;;;;11.93;4.75;;;15.90;99.90;;;17.78;85.27;101786.91;6159532;23;20006;-90
2021/09/01 08:04:05;;;;;;;12.98;4.63;;;16.00;99.90;;;17.85;85.17;101796.31;6134234;23;20005;-89
2021/09/01 08:06:31;;;;;;;13.75;4.82;;;16.00;99.90;;;17.84;84.87;101796.69;6158160;23;20017;-88
2021/09/01 08:08:57;;;;;;;11.45;4.70;;;16.00;99.90;;;17.77;83.95;101796.59;6158519;23;20006;-89
2021/09/01 08:11:24;;;;;;;19.52;5.72;;;16.00;99.90;;;17.76;84.01;101800.59;6146554;23;20013;-89
2021/09/01 08:13:53;;;;;;;10.20;4.10;;;16.00;99.90;;;17.78;84.47;101798.22;6172696;23;20032;-88
2021/09/01 08:16:19;;;;;;;10.80;5.00;;;16.00;99.90;;;17.87;84.35;101804.41;6133522;23;20009;-91
2021/09/01 08:18:45;;;;;;;10.85;4.82;;;16.10;99.90;;;17.97;83.96;101812.25;6158058;23;20161;-90
2021/09/01 08:21:11;;;;;;;12.40;5.25;;;16.20;99.90;;;17.85;83.57;101807.59;6159430;23;20078;-91
2021/09/01 08:23:40;;;;;;;16.17;5.55;;;16.10;99.90;;;17.93;83.66;101808.53;6158049;23;20009;-91
2021/09/01 08:26:07;;;;;;;10.20;4.05;;;16.10;99.90;;;17.99;83.54;101809.84;6132160;23;20013;-90
2021/09/01 08:28:33;;;;;;;10.20;4.57;;;16.20;99.90;;;18.08;82.68;101815.22;6132398;23;20085;-91
2021/09/01 08:30:59;;;;;;;14.55;5.03;;;16.20;99.90;;;18.02;82.28;101817.56;6159286;23;20021;-92
2021/09/01 08:33:25;;;;;;;11.90;4.68;;;16.20;99.90;;;18.06;82.54;101812.78;6132532;23;20017;-90
2021/09/01 08:35:51;;;;;;;9.07;4.28;;;16.20;99.90;;;18.14;81.72;101808.84;6157445;23;20009;-92
2021/09/01 08:38:17;;;;;;;9.07;4.70;;;16.30;99.90;;;18.27;81.87;101804.59;6133137;23;20009;-90
2021/09/01 08:40:50;;;;;;;13.07;4.80;;;16.30;99.90;;;18.31;81.80;101802.66;6132899;23;20013;-90
2021/09/01 08:43:21;;;;;;;9.20;4.28;;;16.40;99.90;;;18.37;81.13;101809.59;6158441;23;20009;-91
2021/09/01 08:45:51;;;;;;;7.75;4.47;;;16.50;99.90;;;18.35;79.71;101808.34;6134604;23;20005;-91
2021/09/01 08:48:18;;;;;;;10.02;4.55;;;16.50;99.90;;;18.40;80.12;101814.47;6134094;23;20012;-89
2021/09/01 08:50:44;;;;;;;10.85;4.88;;;16.50;99.90;;;18.45;80.33;101821.81;6134935;23;20010;-92
2021/09/01 08:53:14;;;;;;;8.95;4.10;;;16.50;99.90;;;18.46;80.76;101817.00;6159533;23;20020;-89
2021/09/01 08:55:40;;;;;;;7.28;3.42;;;16.50;99.90;;;18.51;80.42;101814.66;6135484;23;20040;-91
2021/09/01 08:58:09;;;;;;;10.15;4.10;;;16.60;99.90;;;18.49;79.52;101822.69;6160493;23;20033;-92
2021/09/01 09:00:35;;;;;;;10.50;4.32;;;16.60;99.90;;;18.46;79.55;101820.66;6161034;23;20009;-89
2021/09/01 09:03:03;;;;;;;11.60;4.13;;;16.70;99.90;;;18.49;78.74;101817.03;6136789;23;20067;-90
2021/09/01 09:05:35;;;;;;;8.90;3.60;;;16.60;99.90;;;18.52;77.00;101826.81;6161545;23;20015;-91
2021/09/01 09:08:11;;;;;;;10.75;3.35;;;16.60;99.90;;;18.53;77.70;101822.75;6138477;23;20017;-88
2021/09/01 09:10:44;;;;;;;;;;;16.60;99.90;;;18.54;77.71;101824.38;6137570;23;20005;-88
2021/09/01 09:13:34;;;;;;;9.18;3.45;;;16.70;99.90;;;18.68;77.88;101830.25;6137338;23;20323;-92
2021/09/01 09:16:09;;;;;;;8.05;3.95;;;16.70;99.90;;;18.55;76.88;101820.38;6138930;23;20005;-90
2021/09/01 09:18:37;;;;;;;8.18;3.53;;;16.70;99.90;;;18.60;77.24;101826.50;6138270;23;20005;-88
2021/09/01 09:21:21;;;;;;;9.15;3.60;;;16.70;99.90;;;18.75;77.38;101825.47;6138634;23;20022;-91
2021/09/01 09:23:51;;;;;;;10.90;4.18;;;16.80;99.90;;;18.81;77.34;101818.28;6136994;23;20015;-88
2021/09/01 09:26:28;;;;;;;10.40;3.10;;;16.90;99.90;;;18.91;77.00;101823.22;6163421;23;20061;-89
2021/09/01 09:29:17;;;;;;;5.90;2.90;;;17.00;99.90;;;19.01;75.86;101823.78;6162137;23;20005;-90
2021/09/01 09:32:10;;;;;;;7.30;2.88;;;17.00;99.90;;;19.12;75.43;101821.84;6141386;23;20467;-90
2021/09/01 09:34:46;;;;;;;7.97;2.97;;;17.10;99.90;;;19.10;74.11;101825.09;6139267;23;20033;-90
2021/09/01 09:37:21;;;;;;;8.40;3.05;;;17.20;99.90;;;19.19;74.74;101828.41;6164085;23;20029;-88
2021/09/01 09:39:56;;;;;;;5.90;2.78;;;17.20;99.90;;;19.18;74.23;101821.13;6140489;23;20075;-91
2021/09/01 09:42:38;;;;;;;8.47;3.83;;;17.20;99.90;;;19.15;74.41;101821.06;6140578;23;20005;-90
2021/09/01 09:45:26;;;;;;;10.38;3.35;;;17.30;99.90;;;19.15;74.70;101823.91;6138829;23;20332;-93
2021/09/01 09:47:56;;;;;;;7.85;2.70;;;17.20;99.90;;;19.34;74.67;101830.19;6163044;23;20006;-91
2021/09/01 09:50:33;;;;;;;;;;;;;;;;;;;;;
2021/09/01 09:53:02;;;;;;;7.00;3.25;;;17.40;99.90;;;19.49;74.21;101831.16;6164990;23;20029;-89
2021/09/01 09:55:32;;;;;;;6.82;2.75;;;17.40;99.90;;;19.56;74.06;101819.06;6138030;23;20001;-88
2021/09/01 09:58:04;;;;;;;8.20;3.47;;;17.50;99.90;;;19.52;73.21;101821.09;6138630;23;20017;-89
2021/09/01 10:00:33;;;;;;;6.55;3.28;;;17.60;99.90;;;19.53;73.88;101822.69;6138266;23;20005;-91
2021/09/01 10:03:01;;;;;;;5.75;2.95;;;17.60;99.90;;;19.66;74.39;101812.69;6139072;23;20012;-90
2021/09/01 10:05:40;;;;;;;;;;;;;;;;;;;;;
2021/09/01 10:08:06;;;;;;;10.52;3.80;;;17.80;99.90;;;19.75;71.68;101811.13;6166980;23;20032;-90
2021/09/01 10:10:42;;;;;;;8.60;3.65;;;17.70;99.90;;;19.76;71.17;101809.94;6165784;23;20033;-91
2021/09/01 10:13:13;;;;;;;;;;;17.70;99.90;;;19.91;71.41;101808.84;6139878;23;20111;-90
2021/09/01 10:15:41;;;;;;;6.63;3.00;;;17.90;99.90;;;20.07;71.34;101817.03;6139577;23;19905;-89